sensor_id;sensor_type;location;lat;lon;timestamp;pressure;altitude;pressure_sealevel;temperature;humidity
40384;BME280;26097;42.366;23.818;2023-09-07T00:00:59;94624.47;;;16.16;100.00
40384;BME280;26097;42.366;23.818;2023-09-07T00:04:00;94621.41;;;16.20;100.00
40384;BME280;26097;42.366;23.818;2023-09-07T00:06:59;94616.97;;;16.21;100.00
40384;BME280;26097;42.366;23.818;2023-09-07T00:09:59;94618.78;;;16.20;100.00
40384;BME280;26097;42.366;23.818;2023-09-07T00:12:59;94618.66;;;16.22;100.00
40384;BME280;26097;42.366;23.818;2023-09-07T00:16:03;94616.97;;;16.21;100.00
40384;BME280;26097;42.366;23.818;2023-09-07T00:19:02;94617.25;;;16.18;100.00
40384;BME280;26097;42.366;23.818;2023-09-07T00:22:05;94617.66;;;16.13;100.00
40384;BME280;26097;42.366;23.818;2023-09-07T00:25:05;94616.13;;;16.10;100.00
40384;BME280;26097;42.366;23.818;2023-09-07T00:28:05;94614.75;;;16.06;100.00
40384;BME280;26097;42.366;23.818;2023-09-07T00:31:05;94617.94;;;16.10;100.00
40384;BME280;26097;42.366;23.818;2023-09-07T00:34:04;94606.19;;;16.04;100.00
40384;BME280;26097;42.366;23.818;2023-09-07T00:37:04;94616.41;;;16.07;100.00
40384;BME280;26097;42.366;23.818;2023-09-07T00:40:03;94615.88;;;16.13;100.00
40384;BME280;26097;42.366;23.818;2023-09-07T00:43:03;94612.13;;;16.06;100.00
40384;BME280;26097;42.366;23.818;2023-09-07T00:46:03;94608.69;;;16.06;100.00
40384;BME280;26097;42.366;23.818;2023-09-07T00:49:03;94606.59;;;16.09;100.00
40384;BME280;26097;42.366;23.818;2023-09-07T00:52:05;94612.56;;;16.11;100.00
40384;BME280;26097;42.366;23.818;2023-09-07T00:55:05;94611.44;;;16.14;100.00
40384;BME280;26097;42.366;23.818;2023-09-07T00:58:05;94608.97;;;16.12;100.00
40384;BME280;26097;42.366;23.818;2023-09-07T01:01:04;94607.31;;;16.11;100.00
40384;BME280;26097;42.366;23.818;2023-09-07T01:04:04;94606.59;;;16.09;100.00
40384;BME280;26097;42.366;23.818;2023-09-07T01:07:17;94604.09;;;16.08;100.00
40384;BME280;26097;42.366;23.818;2023-09-07T01:10:17;94600.63;;;16.07;100.00
40384;BME280;26097;42.366;23.818;2023-09-07T01:13:18;94588.75;;;16.03;100.00
40384;BME280;26097;42.366;23.818;2023-09-07T01:16:19;94596.78;;;16.02;100.00
40384;BME280;26097;42.366;23.818;2023-09-07T01:19:19;94593.19;;;16.03;100.00
40384;BME280;26097;42.366;23.818;2023-09-07T01:22:19;94600.50;;;15.99;100.00
40384;BME280;26097;42.366;23.818;2023-09-07T01:25:23;94596.22;;;15.98;100.00
40384;BME280;26097;42.366;23.818;2023-09-07T01:28:22;94598.84;;;15.98;100.00
40384;BME280;26097;42.366;23.818;2023-09-07T01:31:22;94590.97;;;15.98;100.00
40384;BME280;26097;42.366;23.818;2023-09-07T01:34:21;94597.19;;;15.97;100.00
40384;BME280;26097;42.366;23.818;2023-09-07T01:37:20;94595.38;;;15.97;100.00
40384;BME280;26097;42.366;23.818;2023-09-07T01:40:20;94595.25;;;15.99;100.00
40384;BME280;26097;42.366;23.818;2023-09-07T01:43:20;94593.59;;;15.98;100.00
40384;BME280;26097;42.366;23.818;2023-09-07T01:46:19;94594.69;;;16.05;100.00
40384;BME280;26097;42.366;23.818;2023-09-07T01:49:18;94595.09;;;16.10;100.00
40384;BME280;26097;42.366;23.818;2023-09-07T01:52:18;94584.84;;;16.07;100.00
40384;BME280;26097;42.366;23.818;2023-09-07T01:55:17;94588.34;;;16.08;100.00
40384;BME280;26097;42.366;23.818;2023-09-07T01:58:17;94593.72;;;16.06;100.00
40384;BME280;26097;42.366;23.818;2023-09-07T02:01:23;94593.59;;;16.08;100.00
40384;BME280;26097;42.366;23.818;2023-09-07T02:04:22;94586.53;;;16.08;100.00
40384;BME280;26097;42.366;23.818;2023-09-07T02:07:22;94585.00;;;16.06;100.00
40384;BME280;26097;42.366;23.818;2023-09-07T02:10:21;94581.81;;;16.02;100.00
40384;BME280;26097;42.366;23.818;2023-09-07T02:13:21;94583.47;;;16.03;100.00
40384;BME280;26097;42.366;23.818;2023-09-07T02:16:20;94591.09;;;16.06;100.00
40384;BME280;26097;42.366;23.818;2023-09-07T02:19:19;94589.44;;;16.05;100.00
40384;BME280;26097;42.366;23.818;2023-09-07T02:22:21;94583.19;;;16.06;100.00
40384;BME280;26097;42.366;23.818;2023-09-07T02:25:21;94590.13;;;16.07;100.00
40384;BME280;26097;42.366;23.818;2023-09-07T02:28:20;94594.84;;;16.04;100.00
40384;BME280;26097;42.366;23.818;2023-09-07T02:31:20;94597.31;;;16.05;100.00
40384;BME280;26097;42.366;23.818;2023-09-07T02:34:19;94600.91;;;16.04;100.00
40384;BME280;26097;42.366;23.818;2023-09-07T02:37:19;94603.13;;;15.99;100.00
40384;BME280;26097;42.366;23.818;2023-09-07T02:40:18;94591.53;;;15.92;100.00
40384;BME280;26097;42.366;23.818;2023-09-07T02:43:18;94595.53;;;15.96;100.00
40384;BME280;26097;42.366;23.818;2023-09-07T02:46:17;94598.16;;;15.96;100.00
40384;BME280;26097;42.366;23.818;2023-09-07T02:49:16;94584.03;;;15.97;100.00
40384;BME280;26097;42.366;23.818;2023-09-07T02:52:16;94592.06;;;16.05;100.00
40384;BME280;26097;42.366;23.818;2023-09-07T02:55:15;94594.41;;;16.08;100.00
40384;BME280;26097;42.366;23.818;2023-09-07T02:58:15;94596.34;;;16.06;100.00
40384;BME280;26097;42.366;23.818;2023-09-07T03:01:14;94599.81;;;16.17;100.00
40384;BME280;26097;42.366;23.818;2023-09-07T03:04:18;94602.44;;;16.17;100.00
40384;BME280;26097;42.366;23.818;2023-09-07T03:07:17;94594.84;;;16.13;100.00
40384;BME280;26097;42.366;23.818;2023-09-07T03:10:17;94604.81;;;16.10;100.00
40384;BME280;26097;42.366;23.818;2023-09-07T03:13:16;94599.66;;;16.08;100.00
40384;BME280;26097;42.366;23.818;2023-09-07T03:16:15;94599.25;;;16.03;100.00
40384;BME280;26097;42.366;23.818;2023-09-07T03:19:15;94597.59;;;16.02;100.00
40384;BME280;26097;42.366;23.818;2023-09-07T03:22:14;94594.00;;;15.93;100.00
40384;BME280;26097;42.366;23.818;2023-09-07T03:25:14;94602.03;;;15.92;100.00
40384;BME280;26097;42.366;23.818;2023-09-07T03:28:13;94594.84;;;15.94;100.00
40384;BME280;26097;42.366;23.818;2023-09-07T03:31:13;94601.06;;;15.93;100.00
40384;BME280;26097;42.366;23.818;2023-09-07T03:34:12;94602.97;;;15.91;100.00
40384;BME280;26097;42.366;23.818;2023-09-07T03:37:12;94603.41;;;15.96;100.00
40384;BME280;26097;42.366;23.818;2023-09-07T03:40:11;94604.78;;;15.90;100.00
40384;BME280;26097;42.366;23.818;2023-09-07T03:43:11;94606.56;;;15.90;100.00
40384;BME280;26097;42.366;23.818;2023-09-07T03:46:10;94609.19;;;15.90;100.00
40384;BME280;26097;42.366;23.818;2023-09-07T03:49:09;94605.44;;;15.82;100.00
40384;BME280;26097;42.366;23.818;2023-09-07T03:52:09;94608.88;;;15.73;100.00
40384;BME280;26097;42.366;23.818;2023-09-07T03:55:09;94613.00;;;15.66;100.00
40384;BME280;26097;42.366;23.818;2023-09-07T03:58:09;94612.72;;;15.59;100.00
40384;BME280;26097;42.366;23.818;2023-09-07T04:01:09;94616.97;;;15.50;100.00
40384;BME280;26097;42.366;23.818;2023-09-07T04:04:08;94610.47;;;15.45;100.00
40384;BME280;26097;42.366;23.818;2023-09-07T04:07:07;94624.00;;;15.40;100.00
40384;BME280;26097;42.366;23.818;2023-09-07T04:10:07;94607.25;;;15.31;100.00
40384;BME280;26097;42.366;23.818;2023-09-07T04:13:06;94618.72;;;15.30;100.00
40384;BME280;26097;42.366;23.818;2023-09-07T04:16:08;94620.06;;;15.24;100.00
40384;BME280;26097;42.366;23.818;2023-09-07T04:19:08;94617.72;;;15.21;100.00
40384;BME280;26097;42.366;23.818;2023-09-07T04:22:08;94623.94;;;15.20;100.00
40384;BME280;26097;42.366;23.818;2023-09-07T04:25:07;94621.69;;;15.16;100.00
40384;BME280;26097;42.366;23.818;2023-09-07T04:28:07;94627.31;;;15.11;100.00
40384;BME280;26097;42.366;23.818;2023-09-07T04:31:06;94623.75;;;15.12;100.00
40384;BME280;26097;42.366;23.818;2023-09-07T04:34:06;94613.22;;;15.12;100.00
40384;BME280;26097;42.366;23.818;2023-09-07T04:37:05;94623.03;;;15.10;100.00
40384;BME280;26097;42.366;23.818;2023-09-07T04:40:06;94615.03;;;15.11;100.00
40384;BME280;26097;42.366;23.818;2023-09-07T04:43:05;94631.38;;;15.15;100.00
40384;BME280;26097;42.366;23.818;2023-09-07T04:46:04;94621.41;;;15.19;100.00
40384;BME280;26097;42.366;23.818;2023-09-07T04:49:04;94619.09;;;15.25;100.00
40384;BME280;26097;42.366;23.818;2023-09-07T04:52:03;94614.53;;;15.27;100.00
40384;BME280;26097;42.366;23.818;2023-09-07T04:55:03;94626.44;;;15.32;100.00
40384;BME280;26097;42.366;23.818;2023-09-07T04:58:03;94618.16;;;15.36;100.00
40384;BME280;26097;42.366;23.818;2023-09-07T05:01:06;94628.97;;;15.43;100.00
40384;BME280;26097;42.366;23.818;2023-09-07T05:04:06;94624.44;;;15.45;100.00
40384;BME280;26097;42.366;23.818;2023-09-07T05:07:06;94620.44;;;15.51;100.00
40384;BME280;26097;42.366;23.818;2023-09-07T18:31:30;94598.56;;;17.08;100.00
40384;BME280;26097;42.366;23.818;2023-09-07T18:34:30;94601.91;;;17.10;100.00
40384;BME280;26097;42.366;23.818;2023-09-07T18:37:29;94602.72;;;17.10;100.00
40384;BME280;26097;42.366;23.818;2023-09-07T18:40:31;94608.88;;;17.01;100.00
40384;BME280;26097;42.366;23.818;2023-09-07T18:43:34;94600.69;;;16.94;100.00
40384;BME280;26097;42.366;23.818;2023-09-07T18:46:33;94609.28;;;16.96;100.00
40384;BME280;26097;42.366;23.818;2023-09-07T18:49:33;94598.88;;;16.95;100.00
40384;BME280;26097;42.366;23.818;2023-09-07T18:52:33;94600.81;;;16.93;100.00
40384;BME280;26097;42.366;23.818;2023-09-07T18:55:33;94597.50;;;17.01;100.00
40384;BME280;26097;42.366;23.818;2023-09-07T18:58:32;94588.34;;;17.05;100.00
40384;BME280;26097;42.366;23.818;2023-09-07T19:01:32;94587.53;;;16.94;100.00
40384;BME280;26097;42.366;23.818;2023-09-07T19:04:31;94596.13;;;16.87;100.00
40384;BME280;26097;42.366;23.818;2023-09-07T19:07:32;94598.22;;;16.83;100.00
40384;BME280;26097;42.366;23.818;2023-09-07T19:10:33;94593.66;;;16.75;100.00
40384;BME280;26097;42.366;23.818;2023-09-07T19:13:33;94602.00;;;16.70;100.00
40384;BME280;26097;42.366;23.818;2023-09-07T19:16:32;94593.97;;;16.62;100.00
40384;BME280;26097;42.366;23.818;2023-09-07T19:19:32;94596.47;;;16.54;100.00
40384;BME280;26097;42.366;23.818;2023-09-07T19:22:31;94598.84;;;16.47;100.00
40384;BME280;26097;42.366;23.818;2023-09-07T19:25:31;94595.81;;;16.42;100.00
40384;BME280;26097;42.366;23.818;2023-09-07T19:28:31;94596.06;;;16.39;100.00
40384;BME280;26097;42.366;23.818;2023-09-07T19:31:31;94604.69;;;16.31;100.00
40384;BME280;26097;42.366;23.818;2023-09-07T19:34:31;94597.19;;;16.26;100.00
40384;BME280;26097;42.366;23.818;2023-09-07T19:37:31;94598.28;;;16.24;100.00
40384;BME280;26097;42.366;23.818;2023-09-07T19:40:30;94594.00;;;16.23;100.00
40384;BME280;26097;42.366;23.818;2023-09-07T19:43:30;94592.34;;;16.22;100.00
40384;BME280;26097;42.366;23.818;2023-09-07T19:46:30;94587.78;;;16.24;100.00
40384;BME280;26097;42.366;23.818;2023-09-07T19:49:30;94591.38;;;16.23;100.00
40384;BME280;26097;42.366;23.818;2023-09-07T19:52:29;94594.56;;;16.17;100.00
40384;BME280;26097;42.366;23.818;2023-09-07T19:55:29;94592.06;;;16.15;100.00
40384;BME280;26097;42.366;23.818;2023-09-07T19:58:29;94591.09;;;16.16;100.00
40384;BME280;26097;42.366;23.818;2023-09-07T20:01:28;94586.53;;;16.08;100.00
40384;BME280;26097;42.366;23.818;2023-09-07T20:04:28;94590.41;;;16.04;100.00
40384;BME280;26097;42.366;23.818;2023-09-07T20:07:28;94594.28;;;16.00;100.00
40384;BME280;26097;42.366;23.818;2023-09-07T20:10:27;94601.06;;;15.93;100.00
40384;BME280;26097;42.366;23.818;2023-09-07T20:13:27;94601.44;;;15.88;100.00
40384;BME280;26097;42.366;23.818;2023-09-07T20:16:26;94597.81;;;15.79;100.00
40384;BME280;26097;42.366;23.818;2023-09-07T20:19:25;94598.38;;;15.73;100.00
40384;BME280;26097;42.366;23.818;2023-09-07T20:22:25;94596.16;;;15.68;100.00
40384;BME280;26097;42.366;23.818;2023-09-07T20:25:26;94591.84;;;15.57;100.00
40384;BME280;26097;42.366;23.818;2023-09-07T20:28:26;94595.28;;;15.58;100.00
40384;BME280;26097;42.366;23.818;2023-09-07T20:31:25;94592.63;;;15.48;100.00
40384;BME280;26097;42.366;23.818;2023-09-07T20:34:25;94597.06;;;15.48;100.00
40384;BME280;26097;42.366;23.818;2023-09-07T20:37:24;94586.69;;;15.46;100.00
40384;BME280;26097;42.366;23.818;2023-09-07T20:40:24;94594.56;;;15.46;100.00
40384;BME280;26097;42.366;23.818;2023-09-07T20:43:23;94598.34;;;15.53;100.00
40384;BME280;26097;42.366;23.818;2023-09-07T20:46:23;94595.44;;;15.56;100.00
40384;BME280;26097;42.366;23.818;2023-09-07T20:49:22;94595.28;;;15.58;100.00
40384;BME280;26097;42.366;23.818;2023-09-07T20:52:21;94591.28;;;15.64;100.00
40384;BME280;26097;42.366;23.818;2023-09-07T20:55:21;94586.16;;;15.62;100.00
40384;BME280;26097;42.366;23.818;2023-09-07T20:58:20;94579.53;;;15.68;100.00
40384;BME280;26097;42.366;23.818;2023-09-07T21:01:20;94584.28;;;15.74;100.00
40384;BME280;26097;42.366;23.818;2023-09-07T21:04:20;94584.50;;;15.71;100.00
40384;BME280;26097;42.366;23.818;2023-09-07T21:07:19;94578.28;;;15.72;100.00
40384;BME280;26097;42.366;23.818;2023-09-07T21:10:19;94584.50;;;15.71;100.00
40384;BME280;26097;42.366;23.818;2023-09-07T21:13:18;94583.72;;;15.80;100.00
40384;BME280;26097;42.366;23.818;2023-09-07T21:16:17;94581.25;;;15.89;100.00
40384;BME280;26097;42.366;23.818;2023-09-07T21:19:17;94576.94;;;15.88;100.00
40384;BME280;26097;42.366;23.818;2023-09-07T21:22:16;94588.69;;;15.83;100.00
40384;BME280;26097;42.366;23.818;2023-09-07T21:25:16;94576.94;;;15.88;100.00
40384;BME280;26097;42.366;23.818;2023-09-07T21:28:15;94580.41;;;15.88;100.00
40384;BME280;26097;42.366;23.818;2023-09-07T21:31:15;94593.44;;;15.90;100.00
40384;BME280;26097;42.366;23.818;2023-09-07T21:34:14;94601.75;;;15.95;100.00
40384;BME280;26097;42.366;23.818;2023-09-07T21:37:14;94603.13;;;15.99;100.00
40384;BME280;26097;42.366;23.818;2023-09-07T21:40:13;94602.03;;;16.11;100.00
40384;BME280;26097;42.366;23.818;2023-09-07T21:43:13;94607.03;;;16.15;100.00
40384;BME280;26097;42.366;23.818;2023-09-07T21:46:12;94610.34;;;16.17;100.00
40384;BME280;26097;42.366;23.818;2023-09-07T21:49:11;94612.00;;;16.18;100.00
40384;BME280;26097;42.366;23.818;2023-09-07T21:52:11;94611.44;;;16.34;100.00
40384;BME280;26097;42.366;23.818;2023-09-07T21:55:10;94621.13;;;16.53;100.00
40384;BME280;26097;42.366;23.818;2023-09-07T21:58:10;94628.06;;;16.54;100.00
40384;BME280;26097;42.366;23.818;2023-09-07T22:01:09;94627.88;;;16.75;100.00
40384;BME280;26097;42.366;23.818;2023-09-07T22:04:09;94630.19;;;17.08;100.00
40384;BME280;26097;42.366;23.818;2023-09-07T22:07:08;94639.75;;;17.09;100.00
40384;BME280;26097;42.366;23.818;2023-09-07T22:10:08;94632.13;;;17.06;100.00
40384;BME280;26097;42.366;23.818;2023-09-07T22:13:08;94639.31;;;17.13;100.00
40384;BME280;26097;42.366;23.818;2023-09-07T22:16:08;94637.06;;;17.19;100.00
40384;BME280;26097;42.366;23.818;2023-09-07T22:19:07;94642.59;;;17.25;100.00
40384;BME280;26097;42.366;23.818;2023-09-07T22:22:07;94654.09;;;17.34;100.00
40384;BME280;26097;42.366;23.818;2023-09-07T22:25:07;94648.38;;;17.39;100.00
40384;BME280;26097;42.366;23.818;2023-09-07T22:28:07;94646.13;;;17.44;100.00
40384;BME280;26097;42.366;23.818;2023-09-07T22:31:08;94651.69;;;17.41;100.00
40384;BME280;26097;42.366;23.818;2023-09-07T22:34:08;94656.16;;;17.40;100.00
40384;BME280;26097;42.366;23.818;2023-09-07T22:37:07;94657.66;;;17.43;100.00
40384;BME280;26097;42.366;23.818;2023-09-07T22:40:07;94666.97;;;17.37;100.00
40384;BME280;26097;42.366;23.818;2023-09-07T22:43:14;94666.44;;;17.34;100.00
40384;BME280;26097;42.366;23.818;2023-09-07T22:46:13;94667.56;;;17.31;100.00
40384;BME280;26097;42.366;23.818;2023-09-07T22:49:13;94663.38;;;17.28;100.00
40384;BME280;26097;42.366;23.818;2023-09-07T22:52:12;94663.97;;;17.22;100.00
40384;BME280;26097;42.366;23.818;2023-09-07T22:55:12;94667.00;;;17.27;100.00
40384;BME280;26097;42.366;23.818;2023-09-07T22:58:14;94668.94;;;17.25;100.00
40384;BME280;26097;42.366;23.818;2023-09-07T23:01:14;94665.34;;;17.26;100.00
40384;BME280;26097;42.366;23.818;2023-09-07T23:04:13;94670.06;;;17.33;100.00
40384;BME280;26097;42.366;23.818;2023-09-07T23:07:13;94676.81;;;17.35;100.00
40384;BME280;26097;42.366;23.818;2023-09-07T23:10:12;94670.06;;;17.33;100.00
40384;BME280;26097;42.366;23.818;2023-09-07T23:13:12;94677.50;;;17.37;100.00
40384;BME280;26097;42.366;23.818;2023-09-07T23:16:11;94672.09;;;17.39;100.00
40384;BME280;26097;42.366;23.818;2023-09-07T23:19:10;94681.97;;;17.37;100.00
40384;BME280;26097;42.366;23.818;2023-09-07T23:22:13;94679.03;;;17.40;100.00
40384;BME280;26097;42.366;23.818;2023-09-07T23:25:13;94667.13;;;17.36;100.00
40384;BME280;26097;42.366;23.818;2023-09-07T23:28:12;94660.88;;;17.37;100.00
40384;BME280;26097;42.366;23.818;2023-09-07T23:31:12;94660.59;;;17.40;100.00
40384;BME280;26097;42.366;23.818;2023-09-07T23:34:11;94661.97;;;17.34;100.00
40384;BME280;26097;42.366;23.818;2023-09-07T23:37:11;94656.19;;;17.31;100.00
40384;BME280;26097;42.366;23.818;2023-09-07T23:40:11;94655.47;;;17.28;100.00
40384;BME280;26097;42.366;23.818;2023-09-07T23:43:12;94654.38;;;17.31;100.00
40384;BME280;26097;42.366;23.818;2023-09-07T23:46:11;94654.25;;;17.33;100.00
40384;BME280;26097;42.366;23.818;2023-09-07T23:49:11;94653.69;;;17.29;100.00
40384;BME280;26097;42.366;23.818;2023-09-07T23:52:10;94655.78;;;17.25;100.00
40384;BME280;26097;42.366;23.818;2023-09-07T23:55:10;94647.88;;;17.25;100.00
40384;BME280;26097;42.366;23.818;2023-09-07T23:58:09;94645.78;;;17.29;100.00
